Terminal Aerodrome Forecast
Issued by NWS

Home | Current Version | Previous Version | Text Only | Print | Product List | Glossary On
Versions: 1 2 3 4 5 6 7 8 9 10 11 12 13 14 15 16 17 18 19 20 21 22 23 24 25 26 27 28 29 30 31 32 33 34 35 36
000
FTAK31 PAFA 231138
TAFATA
TAF
PATA 231138Z 2312/2412 VRB04KT P6SM VCSH SCT025 BKN035 OVC050
     FM231500 24006KT 6SM -RA SCT015 BKN025 OVC035
     FM231800 24006KT 6SM -SHRA BKN015 BKN025 OVC035
     FM232100 27006KT P6SM VCSH SCT025 BKN035 OVC050
     FM240000 30006KT P6SM SCT035 BKN050=

USA.gov is the U.S. government's official web portal to all federal, state and local government web resources and services.